Аэропорт: Гомель. Гомель

ICAO: UMGG

METAR:
2020-06-04 03:30:00
UMGG 040330Z 16002MPS 9999 SCT050CB BKN100 09/08 Q1004 R10/D NOSIG
METAR:
2020-06-03 23:02:00
TAF UMGG 032302Z 0400/0424 VRB02MPS 6000 BKN015 TEMPO 0400/0404 1200 BR BKN004 TEMPO 0404/0406 19004MPS SCT005 FM040600 19005MPS 9999 BKN025 TEMPO 0409/0424 3000 -SHRA SCT030CB PROB40 TEMPO 0410/0420 2000 TSRA BKN025CB